Marengo, Iowa
Current Conditions -  °F | °C
As of 11:52 PM on Thursday 18 Dec 2014 (Local Time) from KCID Reporting Station
Overcast Overcast  
Wind Chill: 24°   Ceiling: 5000
Heat Index: 24°   Visibility: 7mi
Dew Point: 19°   Wind: 0mph
Humidity: 81%   Direction: NA
Pressure: 30.28"   Gusts: NA
Location:  41.8°N, 92.07°W
Report Text: KCID 190552Z 00000KT 7SM OVC050 M04/M07 A3028 RMK AO2 SLP266 T10441072 11039 21050 410391111 50006 $
Loading
Personal Weather Stations






























Interactive Weather Map New forecast layout! Learn more

10-Day Weather Forecast

Advertisements
Track Severe Weather on mobile